Time;durP1;ratioP1;P1;durP2;ratioP2;P2;SDS_P1;SDS_P2;PMS_P1;PMS_P2;Temp;Humidity;BMP_temperature;BMP_pressure;BME280_temperature;BME280_humidity;BME280_pressure;Samples;Min_cycle;Max_cycle;Signal;HPM_P1;HPM_P2
2022/05/21 07:41:06;;;;;;;;;;;21.80;69.00;;;;;;5116594;27;19952;-90
2022/05/21 07:43:31;;;;;;;;;;;21.90;69.20;;;;;;5115066;28;19950;-89
2022/05/21 07:45:57;;;;;;;;;;;22.00;69.90;;;;;;5110007;28;20003;-89
2022/05/21 07:48:23;;;;;;;;;;;22.10;68.40;;;;;;5119153;28;19984;-90
2022/05/21 07:50:57;;;;;;;;;;;22.30;67.90;;;;;;5121857;28;20031;-91
2022/05/21 07:53:24;;;;;;;;;;;22.30;66.70;;;;;;5110627;28;19946;-90
2022/05/21 07:55:51;;;;;;;;;;;22.50;65.20;;;;;;5110743;28;19954;-90
2022/05/21 07:58:17;;;;;;;;;;;22.60;63.20;;;;;;5113999;28;19969;-90
2022/05/21 08:00:43;;;;;;;;;;;22.70;61.30;;;;;;5116961;28;19951;-90
2022/05/21 08:03:09;;;;;;;;;;;22.80;60.40;;;;;;5110670;28;19942;-90
2022/05/21 08:05:38;;;;;;;;;;;22.90;62.60;;;;;;5114247;28;20078;-90
2022/05/21 08:08:05;;;;;;;;;;;22.90;60.90;;;;;;5112366;28;19946;-90
2022/05/21 08:10:31;;;;;;;;;;;22.90;59.60;;;;;;5110599;28;20034;-90
2022/05/21 08:12:56;;;;;;;;;;;23.00;60.00;;;;;;5111970;28;19992;-90
2022/05/21 08:15:22;;;;;;;;;;;23.10;60.10;;;;;;5106529;28;19958;-90
2022/05/21 08:17:47;;;;;;;;;;;23.20;61.60;;;;;;5118387;28;19951;-91
2022/05/21 08:20:14;;;;;;;;;;;23.20;58.00;;;;;;5121482;28;19957;-90
2022/05/21 08:28:08;;;;;;;;;;;23.30;53.00;;;;;;5093125;28;19958;-90
2022/05/21 08:30:34;;;;;;;;;;;23.30;52.00;;;;;;5090018;28;19950;-90
2022/05/21 08:33:00;;;;;;;;;;;23.30;53.30;;;;;;5090693;28;20112;-90
2022/05/21 08:35:26;;;;;;;;;;;23.40;54.40;;;;;;5090945;28;20379;-90
2022/05/21 08:37:51;;;;;;;;;;;23.50;55.80;;;;;;5099433;28;19961;-90
2022/05/21 08:40:17;;;;;;;;;;;23.60;57.60;;;;;;5089540;28;19964;-90
2022/05/21 08:42:47;;;;;;;;;;;23.50;56.00;;;;;;5104947;28;19954;-90
2022/05/21 08:45:26;;;;;;;;;;;23.60;58.30;;;;;;5104838;28;19960;-90
2022/05/21 08:47:58;;;;;;;;;;;23.70;55.10;;;;;;5098236;28;20419;-91
2022/05/21 08:59:14;;;;;;;;;;;23.80;56.50;;;;;;5131750;27;20417;-90
2022/05/21 09:01:44;;;;;;;;;;;24.20;54.40;;;;;;5131499;28;20043;-90
2022/05/21 09:04:11;;;;;;;;;;;24.30;55.10;;;;;;5131342;28;19951;-90
2022/05/21 09:06:40;;;;;;;;;;;24.40;52.60;;;;;;5131511;28;19956;-90
2022/05/21 09:09:17;;;;;;;;;;;24.50;53.30;;;;;;5130992;28;19945;-90
2022/05/21 09:11:50;;;;;;;;;;;24.50;52.30;;;;;;5131442;28;19942;-90
2022/05/21 09:14:34;;;;;;;;;;;24.60;51.30;;;;;;5131187;28;19949;-90
2022/05/21 09:17:00;;;;;;;;;;;24.50;51.80;;;;;;5131170;28;19951;-90
2022/05/21 09:19:44;;;;;;;;;;;24.50;52.40;;;;;;5131051;28;19949;-90
2022/05/21 09:22:15;;;;;;;;;;;24.50;53.10;;;;;;5130668;28;20471;-91
2022/05/21 09:24:42;;;;;;;;;;;24.50;55.00;;;;;;5131232;28;20073;-90
2022/05/21 09:27:27;;;;;;;;;;;24.60;56.90;;;;;;5131094;28;19940;-90
2022/05/21 09:29:53;;;;;;;;;;;24.70;52.90;;;;;;5130789;28;19973;-90
2022/05/21 09:32:30;;;;;;;;;;;24.80;58.00;;;;;;5131167;28;19945;-90
2022/05/21 09:35:04;;;;;;;;;;;24.90;55.90;;;;;;5130703;28;19941;-91
2022/05/21 09:37:30;;;;;;;;;;;24.90;53.20;;;;;;5130506;28;19972;-90
2022/05/21 09:46:16;;;;;;;;;;;25.00;53.10;;;;;;5111009;27;19942;-90
2022/05/21 09:48:42;;;;;;;;;;;25.20;53.60;;;;;;5111136;28;19947;-90
2022/05/21 09:51:19;;;;;;;;;;;25.30;52.50;;;;;;5110951;28;20041;-90
2022/05/21 09:53:45;;;;;;;;;;;25.20;52.10;;;;;;5109656;28;19973;-90
2022/05/21 09:56:29;;;;;;;;;;;25.30;54.90;;;;;;5110845;28;20423;-90
2022/05/21 09:59:14;;;;;;;;;;;25.30;54.00;;;;;;5111029;28;19966;-90
2022/05/21 10:01:40;;;;;;;;;;;25.30;52.20;;;;;;5110370;28;19939;-90
2022/05/21 10:04:14;;;;;;;;;;;25.20;52.70;;;;;;5110562;28;20013;-91
2022/05/21 10:06:42;;;;;;;;;;;25.20;52.70;;;;;;5110609;28;19936;-90
2022/05/21 10:12:17;;;;;;;;;;;25.40;55.50;;;;;;5110895;28;19948;-90
2022/05/21 10:14:50;;;;;;;;;;;25.50;50.40;;;;;;5110568;28;19976;-90
2022/05/21 10:17:41;;;;;;;;;;;25.60;49.80;;;;;;5110193;28;19951;-90
2022/05/21 10:20:12;;;;;;;;;;;25.60;52.60;;;;;;5109151;27;20332;-90
2022/05/21 10:23:10;;;;;;;;;;;25.50;52.30;;;;;;5110267;28;20318;-90
2022/05/21 10:25:52;;;;;;;;;;;25.50;51.90;;;;;;5086632;28;19965;-90
2022/05/21 10:28:19;;;;;;;;;;;25.60;52.80;;;;;;5110278;28;19972;-90
2022/05/21 10:30:45;;;;;;;;;;;25.60;51.20;;;;;;5110521;28;20175;-90
2022/05/21 10:33:19;;;;;;;;;;;25.70;51.70;;;;;;5110051;28;20356;-90
2022/05/21 10:36:04;;;;;;;;;;;25.70;52.00;;;;;;5110159;28;20024;-90
2022/05/21 10:38:38;;;;;;;;;;;25.70;51.30;;;;;;5110095;28;19937;-90
2022/05/21 10:46:20;;;;;;;;;;;25.90;51.40;;;;;;5111068;27;20119;-91
2022/05/21 10:48:52;;;;;;;;;;;26.20;50.10;;;;;;5110810;28;19986;-90
2022/05/21 10:51:18;;;;;;;;;;;26.20;49.30;;;;;;5110996;28;19942;-91
2022/05/21 10:53:44;;;;;;;;;;;26.30;50.90;;;;;;5110935;28;19942;-90
2022/05/21 10:56:10;;;;;;;;;;;26.30;49.00;;;;;;5110913;28;19938;-90
2022/05/21 10:58:46;;;;;;;;;;;26.30;50.70;;;;;;5110843;28;19950;-90
2022/05/21 11:01:14;;;;;;;;;;;26.50;50.40;;;;;;5110765;28;19946;-91
2022/05/21 11:04:01;;;;;;;;;;;26.50;48.80;;;;;;5110778;28;19953;-90
2022/05/21 11:06:32;;;;;;;;;;;26.60;49.00;;;;;;5110717;28;19945;-90
2022/05/21 11:08:58;;;;;;;;;;;26.60;50.10;;;;;;5110647;28;19943;-90
2022/05/21 11:11:30;;;;;;;;;;;26.60;49.10;;;;;;5110522;28;19938;-90
2022/05/21 11:13:57;;;;;;;;;;;26.60;48.10;;;;;;5110524;28;20329;-90
2022/05/21 11:16:25;;;;;;;;;;;26.80;48.80;;;;;;5110546;28;19952;-90
2022/05/21 11:18:57;;;;;;;;;;;27.00;48.80;;;;;;5109971;28;20319;-90
2022/05/21 11:21:33;;;;;;;;;;;27.00;49.60;;;;;;5110376;28;19942;-90
2022/05/21 11:24:04;;;;;;;;;;;27.40;50.30;;;;;;5110176;28;20015;-90
2022/05/21 11:26:45;;;;;;;;;;;27.80;47.00;;;;;;5110317;28;19943;-91
2022/05/21 11:29:13;;;;;;;;;;;28.20;47.40;;;;;;5110220;28;19989;-90
2022/05/21 11:37:22;;;;;;;;;;;28.50;46.80;;;;;;5089765;28;19947;-90
2022/05/21 11:39:51;;;;;;;;;;;28.50;45.30;;;;;;5089982;28;19948;-91
2022/05/21 11:42:28;;;;;;;;;;;28.40;47.80;;;;;;5089740;28;19945;-91
2022/05/21 11:44:58;;;;;;;;;;;28.70;45.10;;;;;;5089427;28;19989;-91
2022/05/21 11:47:37;;;;;;;;;;;28.70;45.20;;;;;;5094492;28;20015;-91
2022/05/21 11:50:07;;;;;;;;;;;28.80;45.00;;;;;;5109891;28;19975;-91
2022/05/21 11:52:35;;;;;;;;;;;29.00;45.70;;;;;;5109822;28;19987;-91
2022/05/21 11:55:10;;;;;;;;;;;28.80;43.70;;;;;;5109769;28;19941;-91
2022/05/21 11:57:35;;;;;;;;;;;29.00;44.50;;;;;;5096059;28;19947;-91
2022/05/21 12:00:04;;;;;;;;;;;29.20;43.60;;;;;;5096105;28;19936;-91
2022/05/21 12:02:30;;;;;;;;;;;29.60;45.40;;;;;;5096128;28;20212;-91
2022/05/21 12:04:58;;;;;;;;;;;29.90;42.90;;;;;;5095909;28;19955;-91
2022/05/21 12:07:42;;;;;;;;;;;29.40;42.30;;;;;;5096269;28;19943;-91
2022/05/21 12:10:13;;;;;;;;;;;29.40;43.30;;;;;;5095978;28;19982;-91
2022/05/21 12:12:59;;;;;;;;;;;30.10;41.20;;;;;;5094548;28;20336;-91
2022/05/21 12:15:53;;;;;;;;;;;30.60;41.70;;;;;;5088205;28;19941;-92
2022/05/21 12:18:25;;;;;;;;;;;31.10;39.30;;;;;;5071360;28;19953;-91
2022/05/21 12:20:51;;;;;;;;;;;31.00;40.80;;;;;;5075467;28;19937;-91
2022/05/21 12:23:32;;;;;;;;;;;30.50;41.50;;;;;;5075371;28;19965;-91
2022/05/21 12:26:17;;;;;;;;;;;30.30;42.30;;;;;;5075351;28;20403;-91
2022/05/21 12:28:47;;;;;;;;;;;30.50;42.60;;;;;;5075429;28;19936;-90
2022/05/21 12:31:18;;;;;;;;;;;30.30;42.70;;;;;;5075251;28;19987;-90
2022/05/21 12:42:49;;;;;;;;;;;30.40;42.30;;;;;;5111193;27;20432;-90
2022/05/21 12:45:32;;;;;;;;;;;30.40;40.90;;;;;;5111098;28;19951;-91
2022/05/21 12:48:12;;;;;;;;;;;31.10;39.80;;;;;;5110734;28;19943;-91
2022/05/21 12:50:55;;;;;;;;;;;32.30;38.40;;;;;;5110994;28;19953;-91
2022/05/21 12:53:28;;;;;;;;;;;33.50;35.60;;;;;;5110974;28;20010;-91
2022/05/21 12:56:01;;;;;;;;;;;34.50;35.20;;;;;;5110945;28;20064;-91
2022/05/21 12:58:26;;;;;;;;;;;34.70;34.40;;;;;;5110863;28;19935;-91
2022/05/21 13:00:53;;;;;;;;;;;35.50;35.00;;;;;;5110929;28;19967;-91
2022/05/21 13:03:20;;;;;;;;;;;35.80;33.10;;;;;;5110733;28;19992;-91
2022/05/21 13:05:51;;;;;;;;;;;35.70;33.50;;;;;;5110744;28;19944;-91
2022/05/21 13:08:16;;;;;;;;;;;36.70;30.30;;;;;;5110642;28;20394;-92
2022/05/21 13:10:53;;;;;;;;;;;37.50;29.60;;;;;;5110607;28;19939;-91
2022/05/21 13:13:20;;;;;;;;;;;38.20;29.40;;;;;;5110581;28;20036;-91
2022/05/21 13:15:55;;;;;;;;;;;38.70;29.80;;;;;;5110519;28;20472;-91
2022/05/21 13:18:41;;;;;;;;;;;39.10;29.30;;;;;;5110110;28;19951;-91
2022/05/21 13:21:16;;;;;;;;;;;39.00;29.40;;;;;;5078527;28;19975;-92
2022/05/21 13:23:51;;;;;;;;;;;39.60;28.20;;;;;;5089955;28;19941;-91
2022/05/21 13:26:21;;;;;;;;;;;39.90;28.10;;;;;;5089940;28;20394;-91
2022/05/21 13:28:47;;;;;;;;;;;39.80;27.30;;;;;;5089800;28;19953;-91
2022/05/21 13:31:16;;;;;;;;;;;39.50;28.10;;;;;;5089855;28;19947;-91
2022/05/21 13:33:50;;;;;;;;;;;39.40;27.60;;;;;;5088799;28;20092;-91
2022/05/21 13:36:16;;;;;;;;;;;39.10;28.10;;;;;;5089789;28;19936;-91
2022/05/21 13:38:44;;;;;;;;;;;38.20;28.30;;;;;;5089680;28;19988;-91
2022/05/21 13:41:12;;;;;;;;;;;37.50;28.90;;;;;;5089587;28;20006;-91
2022/05/21 13:43:48;;;;;;;;;;;37.70;29.60;;;;;;5089650;28;19949;-91
2022/05/21 13:46:13;;;;;;;;;;;37.90;29.60;;;;;;5089542;28;20062;-91
2022/05/21 13:48:39;;;;;;;;;;;37.90;28.30;;;;;;5089366;28;20044;-91
2022/05/21 13:51:05;;;;;;;;;;;37.60;29.40;;;;;;5089455;28;19938;-91
2022/05/21 13:53:31;;;;;;;;;;;37.40;30.00;;;;;;5078390;28;19937;-91
2022/05/21 13:55:58;;;;;;;;;;;37.50;29.80;;;;;;5076149;28;19950;-91
2022/05/21 13:58:35;;;;;;;;;;;37.70;30.40;;;;;;5075906;28;19951;-91
2022/05/21 14:01:02;;;;;;;;;;;36.90;31.10;;;;;;5075759;28;20407;-91
2022/05/21 14:03:30;;;;;;;;;;;36.50;32.10;;;;;;5075742;28;19943;-91
2022/05/21 14:05:57;;;;;;;;;;;37.00;30.80;;;;;;5075710;28;19939;-91
2022/05/21 14:08:33;;;;;;;;;;;36.80;30.30;;;;;;5075721;28;20397;-91
2022/05/21 14:11:01;;;;;;;;;;;36.90;30.40;;;;;;5075633;28;19942;-91
2022/05/21 14:13:34;;;;;;;;;;;37.50;30.10;;;;;;5075506;28;20034;-91
2022/05/21 14:16:01;;;;;;;;;;;37.50;30.70;;;;;;5076038;28;19944;-91
2022/05/21 14:18:32;;;;;;;;;;;37.50;31.50;;;;;;5075686;28;19949;-91
2022/05/21 14:21:18;;;;;;;;;;;38.00;29.10;;;;;;5075413;28;20195;-91
2022/05/21 14:23:44;;;;;;;;;;;37.90;30.00;;;;;;5074887;28;19969;-91
2022/05/21 14:26:33;;;;;;;;;;;37.60;30.50;;;;;;5075383;28;19938;-91
2022/05/21 14:29:17;;;;;;;;;;;37.70;30.90;;;;;;5075253;28;19963;-91
2022/05/21 14:31:43;;;;;;;;;;;37.20;30.20;;;;;;5075250;28;19942;-91
2022/05/21 14:34:14;;;;;;;;;;;37.30;31.10;;;;;;5079212;28;19943;-91
2022/05/21 14:36:44;;;;;;;;;;;37.40;29.80;;;;;;5087178;28;19984;-91
2022/05/21 14:39:10;;;;;;;;;;;37.80;29.90;;;;;;5075078;28;19983;-91
2022/05/21 14:41:37;;;;;;;;;;;39.00;29.30;;;;;;5074728;28;19955;-91
2022/05/21 14:44:05;;;;;;;;;;;39.80;26.70;;;;;;5075428;28;20082;-91
2022/05/21 14:49:15;;;;;;;;;;;39.60;27.40;;;;;;5095451;28;20000;-91
2022/05/21 14:54:27;;;;;;;;;;;39.40;28.00;;;;;;5090147;28;20338;-91
2022/05/21 14:56:53;;;;;;;;;;;39.40;29.30;;;;;;5074765;28;20084;-91
2022/05/21 14:59:18;;;;;;;;;;;39.60;27.50;;;;;;5074706;28;19992;-91
2022/05/21 15:01:45;;;;;;;;;;;39.50;27.90;;;;;;5074572;28;19956;-91
2022/05/21 15:04:11;;;;;;;;;;;38.60;28.50;;;;;;5075465;28;19936;-91
2022/05/21 15:06:38;;;;;;;;;;;37.80;30.10;;;;;;5094870;28;20037;-92
2022/05/21 15:09:05;;;;;;;;;;;37.60;29.30;;;;;;5094772;28;19937;-91
2022/05/21 15:11:31;;;;;;;;;;;37.70;30.90;;;;;;5094687;28;19947;-91
2022/05/21 15:13:56;;;;;;;;;;;38.20;30.50;;;;;;5094390;28;19934;-91
2022/05/21 15:16:22;;;;;;;;;;;38.60;29.60;;;;;;5094631;28;20011;-91
2022/05/21 15:18:48;;;;;;;;;;;38.70;28.70;;;;;;5094549;28;19951;-91
2022/05/21 15:21:26;;;;;;;;;;;38.90;28.80;;;;;;5094451;28;20063;-91
2022/05/21 15:23:52;;;;;;;;;;;39.10;29.70;;;;;;5094423;28;19960;-91
2022/05/21 15:26:18;;;;;;;;;;;39.10;28.80;;;;;;5093896;28;19955;-91
2022/05/21 15:28:44;;;;;;;;;;;39.50;27.20;;;;;;5094335;28;19938;-91
2022/05/21 15:31:10;;;;;;;;;;;39.50;27.00;;;;;;5094632;28;19942;-91
2022/05/21 15:33:36;;;;;;;;;;;39.60;27.80;;;;;;5094157;28;19960;-91
2022/05/21 15:36:02;;;;;;;;;;;39.00;28.90;;;;;;5093654;28;19945;-91
2022/05/21 15:38:28;;;;;;;;;;;38.60;29.50;;;;;;5094214;28;20344;-91
2022/05/21 15:40:56;;;;;;;;;;;38.40;29.80;;;;;;5092834;28;19949;-91
2022/05/21 15:43:22;;;;;;;;;;;38.50;29.20;;;;;;5094178;28;19962;-91
2022/05/21 15:45:49;;;;;;;;;;;38.00;29.70;;;;;;5093369;28;19960;-91
2022/05/21 15:48:14;;;;;;;;;;;37.60;30.30;;;;;;5094035;28;19944;-91
2022/05/21 15:50:40;;;;;;;;;;;37.10;30.60;;;;;;5094001;28;20528;-91
2022/05/21 15:53:07;;;;;;;;;;;36.50;31.10;;;;;;5094216;28;20302;-91
2022/05/21 15:55:35;;;;;;;;;;;36.50;30.80;;;;;;5093230;28;20399;-91
2022/05/21 15:58:01;;;;;;;;;;;36.70;31.10;;;;;;5093836;28;20392;-91
2022/05/21 16:00:26;;;;;;;;;;;36.40;30.60;;;;;;5094026;28;19943;-91
2022/05/21 16:02:52;;;;;;;;;;;35.90;32.60;;;;;;5093819;28;20333;-91
2022/05/21 16:05:17;;;;;;;;;;;35.30;34.80;;;;;;5093379;28;19945;-91
2022/05/21 16:07:45;;;;;;;;;;;34.80;36.20;;;;;;5093698;28;20040;-91
2022/05/21 16:10:11;;;;;;;;;;;34.70;36.50;;;;;;5093641;28;19943;-91
2022/05/21 16:12:38;;;;;;;;;;;34.40;36.10;;;;;;5093664;28;19960;-91
2022/05/21 16:15:06;;;;;;;;;;;34.30;35.90;;;;;;5092467;28;19939;-91
2022/05/21 16:17:31;;;;;;;;;;;34.40;35.30;;;;;;5093464;28;20373;-91
2022/05/21 16:19:57;;;;;;;;;;;34.20;36.20;;;;;;5093543;28;19971;-91
2022/05/21 16:22:24;;;;;;;;;;;34.10;36.70;;;;;;5093357;28;20049;-91
2022/05/21 16:24:50;;;;;;;;;;;33.80;37.00;;;;;;5093084;28;20000;-91
2022/05/21 16:27:21;;;;;;;;;;;33.70;38.00;;;;;;5093428;28;20466;-91
2022/05/21 16:29:48;;;;;;;;;;;33.70;37.50;;;;;;5093457;28;20035;-91
2022/05/21 16:32:15;;;;;;;;;;;33.70;37.50;;;;;;5093329;28;19941;-91
2022/05/21 16:34:41;;;;;;;;;;;33.60;37.50;;;;;;5092422;28;19946;-91
2022/05/21 16:37:07;;;;;;;;;;;33.50;36.70;;;;;;5093314;28;19957;-91
2022/05/21 16:39:33;;;;;;;;;;;33.10;37.90;;;;;;5093304;28;19942;-91
2022/05/21 16:41:59;;;;;;;;;;;32.90;38.50;;;;;;5092929;28;19978;-91
2022/05/21 16:44:24;;;;;;;;;;;32.60;38.20;;;;;;5092457;28;19958;-90
2022/05/21 16:46:50;;;;;;;;;;;32.60;38.90;;;;;;5093214;28;19961;-91
2022/05/21 16:49:15;;;;;;;;;;;32.50;38.80;;;;;;5093202;28;19940;-91
2022/05/21 16:51:41;;;;;;;;;;;32.50;38.50;;;;;;5093138;28;19942;-91
2022/05/21 16:54:06;;;;;;;;;;;32.20;38.90;;;;;;5093130;28;20384;-91
2022/05/21 16:56:34;;;;;;;;;;;32.20;38.70;;;;;;5074912;28;20302;-91
2022/05/21 16:58:59;;;;;;;;;;;32.20;40.30;;;;;;5072869;28;19983;-91
2022/05/21 17:01:25;;;;;;;;;;;32.20;38.50;;;;;;5072830;28;20003;-91
2022/05/21 17:03:51;;;;;;;;;;;32.20;39.60;;;;;;5072860;28;20029;-91
2022/05/21 17:06:17;;;;;;;;;;;32.10;39.60;;;;;;5073285;28;19993;-90
2022/05/21 17:08:42;;;;;;;;;;;32.00;39.50;;;;;;5072844;28;19947;-91
2022/05/21 17:11:08;;;;;;;;;;;31.80;39.50;;;;;;5073054;28;19950;-91
2022/05/21 17:13:34;;;;;;;;;;;31.70;40.50;;;;;;5072781;28;20418;-91
2022/05/21 17:16:00;;;;;;;;;;;31.50;42.70;;;;;;5086697;28;19939;-91
2022/05/21 17:18:25;;;;;;;;;;;31.40;41.90;;;;;;5093229;28;20450;-91
2022/05/21 17:20:51;;;;;;;;;;;31.40;41.10;;;;;;5092812;28;20472;-91
2022/05/21 17:23:19;;;;;;;;;;;31.30;41.80;;;;;;5091502;28;19932;-91
2022/05/21 17:25:45;;;;;;;;;;;31.10;43.90;;;;;;5080854;28;19998;-91
2022/05/21 17:30:57;;;;;;;;;;;30.70;45.20;;;;;;5076378;28;19947;-91
2022/05/21 17:33:24;;;;;;;;;;;30.50;49.40;;;;;;5076206;28;20450;-90
2022/05/21 17:35:53;;;;;;;;;;;30.10;50.90;;;;;;5076203;28;19949;-91
2022/05/21 17:38:19;;;;;;;;;;;29.90;50.90;;;;;;5076289;28;19973;-90
2022/05/21 17:40:45;;;;;;;;;;;29.80;50.90;;;;;;5075963;28;20002;-90
2022/05/21 17:43:12;;;;;;;;;;;29.60;52.10;;;;;;5076162;28;20426;-90
2022/05/21 17:45:37;;;;;;;;;;;29.20;52.70;;;;;;5076314;28;19969;-91
2022/05/21 17:48:03;;;;;;;;;;;29.10;56.10;;;;;;5076136;28;19942;-90
2022/05/21 17:50:30;;;;;;;;;;;28.60;55.50;;;;;;5075936;28;20286;-90
2022/05/21 17:52:56;;;;;;;;;;;28.20;59.50;;;;;;5076070;28;19940;-90
2022/05/21 17:55:23;;;;;;;;;;;28.10;60.40;;;;;;5084074;28;20427;-90
2022/05/21 17:57:49;;;;;;;;;;;28.10;59.80;;;;;;5096142;28;20382;-90
2022/05/21 18:00:15;;;;;;;;;;;28.00;59.90;;;;;;5096185;28;19984;-90
2022/05/21 18:02:42;;;;;;;;;;;27.80;57.80;;;;;;5095923;28;20316;-90
2022/05/21 18:05:15;;;;;;;;;;;27.80;57.60;;;;;;5095707;28;20417;-90
2022/05/21 18:07:40;;;;;;;;;;;27.80;62.00;;;;;;5095966;28;19937;-90
2022/05/21 18:10:06;;;;;;;;;;;27.60;60.90;;;;;;5095863;28;20001;-90
2022/05/21 18:12:31;;;;;;;;;;;27.40;58.40;;;;;;5095926;28;20318;-90
2022/05/21 18:14:57;;;;;;;;;;;27.40;58.80;;;;;;5091509;28;19950;-90
2022/05/21 18:20:06;;;;;;;;;;;27.20;59.20;;;;;;5075830;28;20417;-90
2022/05/21 18:22:32;;;;;;;;;;;27.20;58.70;;;;;;5075247;28;19957;-90
2022/05/21 18:24:58;;;;;;;;;;;27.10;58.90;;;;;;5079179;28;19945;-90
2022/05/21 18:27:23;;;;;;;;;;;27.00;62.30;;;;;;5095525;28;19946;-90
2022/05/21 18:29:49;;;;;;;;;;;26.70;64.60;;;;;;5095539;28;19943;-90
2022/05/21 18:32:16;;;;;;;;;;;26.60;60.90;;;;;;5095503;28;20021;-90
2022/05/21 18:34:42;;;;;;;;;;;26.60;59.00;;;;;;5094635;28;19982;-90
2022/05/21 18:37:08;;;;;;;;;;;26.50;59.30;;;;;;5095416;28;19980;-90
2022/05/21 18:39:33;;;;;;;;;;;26.40;57.60;;;;;;5095273;28;20366;-90
2022/05/21 18:41:59;;;;;;;;;;;26.40;57.30;;;;;;5094913;28;20422;-90
2022/05/21 18:44:24;;;;;;;;;;;26.40;57.00;;;;;;5095308;28;20003;-90
2022/05/21 18:46:50;;;;;;;;;;;26.40;57.30;;;;;;5076004;28;20037;-90
2022/05/21 18:49:16;;;;;;;;;;;26.30;58.50;;;;;;5075002;28;19938;-90
2022/05/21 18:51:41;;;;;;;;;;;26.20;62.90;;;;;;5075163;28;20020;-90
2022/05/21 18:54:08;;;;;;;;;;;26.10;64.30;;;;;;5075090;28;20126;-90
2022/05/21 18:56:34;;;;;;;;;;;26.00;62.80;;;;;;5077186;28;19997;-90
2022/05/21 18:59:02;;;;;;;;;;;26.00;62.40;;;;;;5075033;28;19992;-90
2022/05/21 19:01:28;;;;;;;;;;;25.80;59.90;;;;;;5074633;28;20079;-90
2022/05/21 19:03:54;;;;;;;;;;;25.90;59.00;;;;;;5074890;28;19948;-90
2022/05/21 19:06:20;;;;;;;;;;;25.80;62.80;;;;;;5074858;28;20131;-90
2022/05/21 19:08:45;;;;;;;;;;;25.80;67.00;;;;;;5074543;28;20028;-90
2022/05/21 19:11:12;;;;;;;;;;;25.50;64.20;;;;;;5074496;28;19938;-90
2022/05/21 19:13:38;;;;;;;;;;;25.40;64.30;;;;;;5074782;28;19955;-90
2022/05/21 19:16:12;;;;;;;;;;;25.30;63.50;;;;;;5092242;28;19944;-90
2022/05/21 19:21:23;;;;;;;;;;;25.20;61.90;;;;;;5094671;28;19969;-90
2022/05/21 19:23:49;;;;;;;;;;;25.20;63.90;;;;;;5078610;28;19965;-90
2022/05/21 19:26:15;;;;;;;;;;;25.20;65.90;;;;;;5074245;28;19981;-90
2022/05/21 19:28:41;;;;;;;;;;;25.20;67.30;;;;;;5074120;28;19951;-90
2022/05/21 19:31:06;;;;;;;;;;;25.00;68.90;;;;;;5074623;28;19951;-90
2022/05/21 19:33:32;;;;;;;;;;;24.90;67.60;;;;;;5073906;28;19934;-90
2022/05/21 19:35:57;;;;;;;;;;;24.90;64.40;;;;;;5074025;28;20005;-90
2022/05/21 19:38:23;;;;;;;;;;;24.80;65.10;;;;;;5073961;28;19943;-90
2022/05/21 19:43:34;;;;;;;;;;;24.80;68.00;;;;;;5093924;28;19994;-90
2022/05/21 19:46:03;;;;;;;;;;;24.80;70.30;;;;;;5094359;28;19955;-90
2022/05/21 19:48:29;;;;;;;;;;;24.70;69.60;;;;;;5094382;28;19935;-90
2022/05/21 19:50:55;;;;;;;;;;;24.60;66.90;;;;;;5088513;28;19958;-89
2022/05/21 19:53:20;;;;;;;;;;;24.60;65.30;;;;;;5073701;28;19943;-90
2022/05/21 19:55:46;;;;;;;;;;;24.60;69.10;;;;;;5073686;28;19947;-90
2022/05/21 19:58:11;;;;;;;;;;;24.60;71.00;;;;;;5073593;28;19969;-90
2022/05/21 20:00:40;;;;;;;;;;;24.50;70.90;;;;;;5073618;28;20042;-90
2022/05/21 20:03:09;;;;;;;;;;;24.40;69.30;;;;;;5073528;28;20444;-90
2022/05/21 20:05:40;;;;;;;;;;;24.30;68.50;;;;;;5073825;28;20311;-90
2022/05/21 20:08:06;;;;;;;;;;;24.30;68.40;;;;;;5078375;28;19953;-90
2022/05/21 20:10:32;;;;;;;;;;;24.20;72.70;;;;;;5093678;28;19943;-90
2022/05/21 20:12:57;;;;;;;;;;;24.10;74.20;;;;;;5093640;28;19942;-90
2022/05/21 20:15:23;;;;;;;;;;;24.00;74.00;;;;;;5093724;28;19943;-91
2022/05/21 20:17:48;;;;;;;;;;;23.90;72.80;;;;;;5092883;28;20006;-90
2022/05/21 20:20:18;;;;;;;;;;;23.90;71.80;;;;;;5073241;28;19981;-90
2022/05/21 20:22:44;;;;;;;;;;;23.80;71.60;;;;;;5073189;28;20012;-90
2022/05/21 20:25:10;;;;;;;;;;;23.70;74.10;;;;;;5073273;28;19997;-90
2022/05/21 20:27:36;;;;;;;;;;;23.60;74.50;;;;;;5073652;28;20322;-90
2022/05/21 20:30:07;;;;;;;;;;;23.50;73.90;;;;;;5073233;28;19937;-90
2022/05/21 20:32:32;;;;;;;;;;;23.40;72.80;;;;;;5073103;28;19947;-90
2022/05/21 20:34:58;;;;;;;;;;;23.40;71.00;;;;;;5073188;28;20026;-90
2022/05/21 20:37:23;;;;;;;;;;;23.30;71.50;;;;;;5073153;28;19946;-90
2022/05/21 20:39:49;;;;;;;;;;;23.20;71.70;;;;;;5073280;28;20458;-90
2022/05/21 20:42:15;;;;;;;;;;;23.20;72.10;;;;;;5114173;22;20469;-90
2022/05/21 20:44:41;;;;;;;;;;;23.20;72.50;;;;;;5113629;28;20351;-90
2022/05/21 20:47:08;;;;;;;;;;;23.10;74.40;;;;;;5113613;28;20308;-90
2022/05/21 20:49:37;;;;;;;;;;;23.10;76.90;;;;;;5112909;28;19995;-90
2022/05/21 20:52:13;;;;;;;;;;;23.00;75.30;;;;;;5113603;28;19939;-90
2022/05/21 20:54:40;;;;;;;;;;;22.90;75.00;;;;;;5112256;28;19940;-90
2022/05/21 20:57:07;;;;;;;;;;;22.90;74.10;;;;;;5113509;28;19933;-90
2022/05/21 20:59:33;;;;;;;;;;;22.90;73.40;;;;;;5112588;28;20320;-90
2022/05/21 21:01:58;;;;;;;;;;;22.90;72.40;;;;;;5113647;28;19947;-90
2022/05/21 21:04:24;;;;;;;;;;;22.90;72.00;;;;;;5117475;28;20458;-90
2022/05/21 21:06:49;;;;;;;;;;;22.90;72.50;;;;;;5117797;28;20341;-90
2022/05/21 21:09:15;;;;;;;;;;;22.90;71.70;;;;;;5104142;28;20350;-90
2022/05/21 21:11:40;;;;;;;;;;;22.80;70.80;;;;;;5097064;28;19941;-90
2022/05/21 21:14:06;;;;;;;;;;;22.80;70.60;;;;;;5097083;28;19946;-90
2022/05/21 21:16:32;;;;;;;;;;;22.80;70.30;;;;;;5097181;28;19945;-90
2022/05/21 21:18:57;;;;;;;;;;;22.80;70.50;;;;;;5107232;28;20430;-90
2022/05/21 21:21:23;;;;;;;;;;;22.80;74.10;;;;;;5117242;28;19945;-90
2022/05/21 21:23:48;;;;;;;;;;;22.70;78.20;;;;;;5117188;28;19961;-90
2022/05/21 21:26:14;;;;;;;;;;;22.40;78.50;;;;;;5117198;28;20033;-90
2022/05/21 21:28:39;;;;;;;;;;;22.30;78.80;;;;;;5109180;28;19998;-90
2022/05/21 21:31:05;;;;;;;;;;;22.20;77.40;;;;;;5096712;28;20403;-90
2022/05/21 21:33:31;;;;;;;;;;;22.30;77.10;;;;;;5096600;28;20027;-90
2022/05/21 21:35:57;;;;;;;;;;;22.20;78.50;;;;;;5096708;28;19935;-90
2022/05/21 21:38:23;;;;;;;;;;;22.10;76.70;;;;;;5099653;28;19940;-90
2022/05/21 21:40:48;;;;;;;;;;;21.90;80.80;;;;;;5116736;28;20019;-90
2022/05/21 21:43:14;;;;;;;;;;;21.80;81.70;;;;;;5116959;28;20020;-90
2022/05/21 21:45:40;;;;;;;;;;;21.80;80.30;;;;;;5116836;28;20321;-90
2022/05/21 21:48:05;;;;;;;;;;;21.80;79.70;;;;;;5116143;28;20001;-90
2022/05/21 21:50:31;;;;;;;;;;;21.80;79.00;;;;;;5116835;28;20315;-90
2022/05/21 21:52:57;;;;;;;;;;;21.70;80.30;;;;;;5116711;28;20410;-90
2022/05/21 21:55:22;;;;;;;;;;;21.70;79.40;;;;;;5116703;28;19944;-90
2022/05/21 21:57:48;;;;;;;;;;;21.70;79.90;;;;;;5115925;28;19945;-90
2022/05/21 22:03:16;;;;;;;;;;;21.60;79.70;;;;;;5116567;28;20353;-90
2022/05/21 22:05:42;;;;;;;;;;;21.60;79.80;;;;;;5116823;28;20428;-90
2022/05/21 22:08:07;;;;;;;;;;;21.70;79.40;;;;;;5113574;28;20469;-90
2022/05/21 22:10:33;;;;;;;;;;;21.80;79.10;;;;;;5095976;28;19987;-90
2022/05/21 22:12:58;;;;;;;;;;;21.70;78.70;;;;;;5095643;28;19985;-90
2022/05/21 22:15:24;;;;;;;;;;;21.70;79.10;;;;;;5095812;28;19941;-90
2022/05/21 22:17:49;;;;;;;;;;;21.70;79.10;;;;;;5095867;28;19938;-90
2022/05/21 22:20:15;;;;;;;;;;;21.70;81.20;;;;;;5115806;28;20035;-90
2022/05/21 22:22:40;;;;;;;;;;;21.60;82.00;;;;;;5116008;28;19971;-90
2022/05/21 22:25:06;;;;;;;;;;;21.50;80.80;;;;;;5116203;28;19940;-90
2022/05/21 22:27:32;;;;;;;;;;;21.40;80.20;;;;;;5116134;28;19940;-90
2022/05/21 22:29:57;;;;;;;;;;;21.40;80.30;;;;;;5115161;28;20422;-90
2022/05/21 22:32:23;;;;;;;;;;;21.30;80.30;;;;;;5115966;28;20384;-90
2022/05/21 22:34:48;;;;;;;;;;;21.30;80.40;;;;;;5104556;28;19948;-90
2022/05/21 22:37:14;;;;;;;;;;;21.30;80.40;;;;;;5095440;28;19938;-90
2022/05/21 22:39:39;;;;;;;;;;;21.30;80.20;;;;;;5095458;28;19935;-90
2022/05/21 22:42:05;;;;;;;;;;;21.20;80.50;;;;;;5095233;28;19972;-90
2022/05/21 22:44:30;;;;;;;;;;;21.30;80.90;;;;;;5102265;28;20320;-91
2022/05/21 22:46:56;;;;;;;;;;;21.30;81.00;;;;;;5115694;28;19956;-90
2022/05/21 22:49:22;;;;;;;;;;;21.30;81.30;;;;;;5115623;28;20271;-90
2022/05/21 22:51:48;;;;;;;;;;;21.20;81.50;;;;;;5115909;28;19952;-90
2022/05/21 22:54:13;;;;;;;;;;;21.20;81.30;;;;;;5115255;28;20037;-90
2022/05/21 22:56:39;;;;;;;;;;;21.20;80.80;;;;;;5115790;28;19949;-90
2022/05/21 22:59:05;;;;;;;;;;;21.20;81.40;;;;;;5115420;28;20445;-90
2022/05/21 23:01:31;;;;;;;;;;;21.20;81.70;;;;;;5096963;28;19981;-90
2022/05/21 23:03:56;;;;;;;;;;;21.10;81.90;;;;;;5094884;28;20302;-90
2022/05/21 23:06:22;;;;;;;;;;;21.10;82.00;;;;;;5094841;28;19993;-90